sensor_id;sensor_type;location;lat;lon;timestamp;temperature;humidity
41344;DHT22;27089;50.022;7.604;2023-02-15T00:01:53;-1.00;99.90
41344;DHT22;27089;50.022;7.604;2023-02-15T00:04:24;-1.00;99.90
41344;DHT22;27089;50.022;7.604;2023-02-15T00:07:13;-1.00;99.90
41344;DHT22;27089;50.022;7.604;2023-02-15T00:09:40;-1.10;99.90
41344;DHT22;27089;50.022;7.604;2023-02-15T00:12:09;-1.10;99.90
41344;DHT22;27089;50.022;7.604;2023-02-15T00:14:36;-1.10;99.90
41344;DHT22;27089;50.022;7.604;2023-02-15T00:17:03;-1.00;99.90
41344;DHT22;27089;50.022;7.604;2023-02-15T00:19:30;-1.10;99.90
41344;DHT22;27089;50.022;7.604;2023-02-15T00:21:57;-1.10;99.90
41344;DHT22;27089;50.022;7.604;2023-02-15T00:24:26;-1.00;99.90
41344;DHT22;27089;50.022;7.604;2023-02-15T00:26:53;-1.10;99.90
41344;DHT22;27089;50.022;7.604;2023-02-15T00:29:20;-1.20;99.90
41344;DHT22;27089;50.022;7.604;2023-02-15T00:31:48;-1.20;99.90
41344;DHT22;27089;50.022;7.604;2023-02-15T00:34:17;-1.20;99.90
41344;DHT22;27089;50.022;7.604;2023-02-15T00:36:45;-1.30;99.90
41344;DHT22;27089;50.022;7.604;2023-02-15T00:39:12;-1.40;99.90
41344;DHT22;27089;50.022;7.604;2023-02-15T00:41:41;-1.40;99.90
41344;DHT22;27089;50.022;7.604;2023-02-15T00:44:08;-1.40;99.90
41344;DHT22;27089;50.022;7.604;2023-02-15T00:46:35;-1.40;99.90
41344;DHT22;27089;50.022;7.604;2023-02-15T00:49:03;-1.40;99.90
41344;DHT22;27089;50.022;7.604;2023-02-15T00:51:30;-1.40;99.90
41344;DHT22;27089;50.022;7.604;2023-02-15T00:53:57;-1.30;99.90
41344;DHT22;27089;50.022;7.604;2023-02-15T00:56:25;-1.30;99.90
41344;DHT22;27089;50.022;7.604;2023-02-15T00:58:55;-1.30;99.90
41344;DHT22;27089;50.022;7.604;2023-02-15T01:01:22;-1.30;99.90
41344;DHT22;27089;50.022;7.604;2023-02-15T01:03:51;-1.30;99.90
41344;DHT22;27089;50.022;7.604;2023-02-15T01:06:18;-1.40;99.90
41344;DHT22;27089;50.022;7.604;2023-02-15T01:08:46;-1.50;99.90
41344;DHT22;27089;50.022;7.604;2023-02-15T01:11:14;-1.60;99.90
41344;DHT22;27089;50.022;7.604;2023-02-15T01:13:47;-1.70;99.90
41344;DHT22;27089;50.022;7.604;2023-02-15T01:16:16;-1.70;99.90
41344;DHT22;27089;50.022;7.604;2023-02-15T01:18:43;-1.70;99.90
41344;DHT22;27089;50.022;7.604;2023-02-15T01:21:12;-1.70;99.90
41344;DHT22;27089;50.022;7.604;2023-02-15T01:23:39;-1.70;99.90
41344;DHT22;27089;50.022;7.604;2023-02-15T01:26:06;-1.60;99.90
41344;DHT22;27089;50.022;7.604;2023-02-15T01:28:33;-1.60;99.90
41344;DHT22;27089;50.022;7.604;2023-02-15T01:31:05;-1.60;99.90
41344;DHT22;27089;50.022;7.604;2023-02-15T01:33:34;-1.50;99.90
41344;DHT22;27089;50.022;7.604;2023-02-15T01:36:01;-1.50;99.90
41344;DHT22;27089;50.022;7.604;2023-02-15T01:38:28;-1.50;99.90
41344;DHT22;27089;50.022;7.604;2023-02-15T01:40:55;-1.50;99.90
41344;DHT22;27089;50.022;7.604;2023-02-15T01:43:45;-1.50;99.90
41344;DHT22;27089;50.022;7.604;2023-02-15T01:46:14;-1.50;99.90
41344;DHT22;27089;50.022;7.604;2023-02-15T01:48:46;-1.60;99.90
41344;DHT22;27089;50.022;7.604;2023-02-15T01:51:15;-1.60;99.90
41344;DHT22;27089;50.022;7.604;2023-02-15T01:53:49;-1.60;99.90
41344;DHT22;27089;50.022;7.604;2023-02-15T01:56:19;-1.60;99.90
41344;DHT22;27089;50.022;7.604;2023-02-15T01:58:49;-1.60;99.90
41344;DHT22;27089;50.022;7.604;2023-02-15T02:01:18;-1.60;99.90
41344;DHT22;27089;50.022;7.604;2023-02-15T02:03:53;-1.60;99.90
41344;DHT22;27089;50.022;7.604;2023-02-15T02:06:24;-1.60;99.90
41344;DHT22;27089;50.022;7.604;2023-02-15T02:08:53;-1.60;99.90
41344;DHT22;27089;50.022;7.604;2023-02-15T02:11:20;-1.60;99.90
41344;DHT22;27089;50.022;7.604;2023-02-15T02:13:48;-1.60;99.90
41344;DHT22;27089;50.022;7.604;2023-02-15T02:16:20;-1.70;99.90
41344;DHT22;27089;50.022;7.604;2023-02-15T02:18:59;-1.70;99.90
41344;DHT22;27089;50.022;7.604;2023-02-15T02:25:11;-1.70;99.90
41344;DHT22;27089;50.022;7.604;2023-02-15T02:27:42;-1.80;99.90
41344;DHT22;27089;50.022;7.604;2023-02-15T02:33:42;-1.90;99.90
41344;DHT22;27089;50.022;7.604;2023-02-15T02:36:23;-1.90;99.90
41344;DHT22;27089;50.022;7.604;2023-02-15T02:39:07;-1.90;99.90
41344;DHT22;27089;50.022;7.604;2023-02-15T02:41:41;-1.90;99.90
41344;DHT22;27089;50.022;7.604;2023-02-15T02:44:13;-1.90;99.90
41344;DHT22;27089;50.022;7.604;2023-02-15T02:46:48;-1.90;99.90
41344;DHT22;27089;50.022;7.604;2023-02-15T02:49:31;-1.90;99.90
41344;DHT22;27089;50.022;7.604;2023-02-15T02:51:59;-2.10;99.90
41344;DHT22;27089;50.022;7.604;2023-02-15T02:54:27;-2.10;99.90
41344;DHT22;27089;50.022;7.604;2023-02-15T02:56:56;-2.20;99.90
41344;DHT22;27089;50.022;7.604;2023-02-15T02:59:29;-2.20;99.90
41344;DHT22;27089;50.022;7.604;2023-02-15T03:02:00;-2.20;99.90
41344;DHT22;27089;50.022;7.604;2023-02-15T03:04:33;-2.30;99.90
41344;DHT22;27089;50.022;7.604;2023-02-15T03:07:05;-2.20;99.90
41344;DHT22;27089;50.022;7.604;2023-02-15T03:09:36;-2.20;99.90
41344;DHT22;27089;50.022;7.604;2023-02-15T03:12:09;-2.20;99.90
41344;DHT22;27089;50.022;7.604;2023-02-15T03:14:38;-2.20;99.90
41344;DHT22;27089;50.022;7.604;2023-02-15T03:17:07;-2.20;99.90
41344;DHT22;27089;50.022;7.604;2023-02-15T03:19:36;-2.20;99.90
41344;DHT22;27089;50.022;7.604;2023-02-15T03:22:06;-2.30;99.90
41344;DHT22;27089;50.022;7.604;2023-02-15T03:24:37;-2.30;99.90
41344;DHT22;27089;50.022;7.604;2023-02-15T03:27:08;-2.30;99.90
41344;DHT22;27089;50.022;7.604;2023-02-15T03:29:37;-2.30;99.90
41344;DHT22;27089;50.022;7.604;2023-02-15T03:32:08;-2.30;99.90
41344;DHT22;27089;50.022;7.604;2023-02-15T03:34:38;-2.20;99.90
41344;DHT22;27089;50.022;7.604;2023-02-15T03:37:10;-2.40;99.90
41344;DHT22;27089;50.022;7.604;2023-02-15T03:39:42;-2.50;99.90
41344;DHT22;27089;50.022;7.604;2023-02-15T03:42:14;-2.50;99.90
41344;DHT22;27089;50.022;7.604;2023-02-15T03:44:50;-2.40;99.90
41344;DHT22;27089;50.022;7.604;2023-02-15T03:47:20;-2.40;99.90
41344;DHT22;27089;50.022;7.604;2023-02-15T03:49:52;-2.40;99.90
41344;DHT22;27089;50.022;7.604;2023-02-15T03:52:21;-2.30;99.90
41344;DHT22;27089;50.022;7.604;2023-02-15T03:54:50;-2.40;99.90
41344;DHT22;27089;50.022;7.604;2023-02-15T03:57:19;-2.30;99.90
41344;DHT22;27089;50.022;7.604;2023-02-15T04:00:09;-2.30;99.90
41344;DHT22;27089;50.022;7.604;2023-02-15T04:03:08;-2.30;99.90
41344;DHT22;27089;50.022;7.604;2023-02-15T04:05:37;-2.40;99.90
41344;DHT22;27089;50.022;7.604;2023-02-15T04:08:05;-2.40;99.90
41344;DHT22;27089;50.022;7.604;2023-02-15T04:10:31;-2.40;99.90
41344;DHT22;27089;50.022;7.604;2023-02-15T04:13:16;-2.40;99.90
41344;DHT22;27089;50.022;7.604;2023-02-15T04:15:43;-2.30;99.90
41344;DHT22;27089;50.022;7.604;2023-02-15T04:18:27;-2.30;99.90
41344;DHT22;27089;50.022;7.604;2023-02-15T04:21:13;-2.20;99.90
41344;DHT22;27089;50.022;7.604;2023-02-15T04:23:58;-2.20;99.90
41344;DHT22;27089;50.022;7.604;2023-02-15T04:26:42;-2.20;99.90
41344;DHT22;27089;50.022;7.604;2023-02-15T04:29:09;-2.30;99.90
41344;DHT22;27089;50.022;7.604;2023-02-15T04:31:36;-2.30;99.90
41344;DHT22;27089;50.022;7.604;2023-02-15T04:34:03;-2.30;99.90
41344;DHT22;27089;50.022;7.604;2023-02-15T04:36:31;-2.30;99.90
41344;DHT22;27089;50.022;7.604;2023-02-15T04:38:58;-2.30;99.90
41344;DHT22;27089;50.022;7.604;2023-02-15T04:41:25;-2.30;99.90
41344;DHT22;27089;50.022;7.604;2023-02-15T04:43:52;-2.30;99.90
41344;DHT22;27089;50.022;7.604;2023-02-15T04:46:19;-2.30;99.90
41344;DHT22;27089;50.022;7.604;2023-02-15T04:48:46;-2.30;99.90
41344;DHT22;27089;50.022;7.604;2023-02-15T04:51:13;-2.40;99.90
41344;DHT22;27089;50.022;7.604;2023-02-15T04:53:41;-2.30;99.90
41344;DHT22;27089;50.022;7.604;2023-02-15T04:56:08;-2.20;99.90
41344;DHT22;27089;50.022;7.604;2023-02-15T04:58:35;-2.30;99.90
41344;DHT22;27089;50.022;7.604;2023-02-15T05:01:04;-2.30;99.90
41344;DHT22;27089;50.022;7.604;2023-02-15T05:03:31;-2.30;99.90
41344;DHT22;27089;50.022;7.604;2023-02-15T05:05:58;-2.30;99.90
41344;DHT22;27089;50.022;7.604;2023-02-15T05:08:25;-2.30;99.90
41344;DHT22;27089;50.022;7.604;2023-02-15T05:10:53;-2.30;99.90
41344;DHT22;27089;50.022;7.604;2023-02-15T05:13:20;-2.30;99.90
41344;DHT22;27089;50.022;7.604;2023-02-15T05:15:48;-2.30;99.90
41344;DHT22;27089;50.022;7.604;2023-02-15T05:18:15;-2.30;99.90
41344;DHT22;27089;50.022;7.604;2023-02-15T05:20:42;-2.30;99.90
41344;DHT22;27089;50.022;7.604;2023-02-15T05:23:10;-2.40;99.90
41344;DHT22;27089;50.022;7.604;2023-02-15T05:25:37;-2.30;99.90
41344;DHT22;27089;50.022;7.604;2023-02-15T05:28:24;-2.40;99.90
41344;DHT22;27089;50.022;7.604;2023-02-15T05:31:01;-2.40;99.90
41344;DHT22;27089;50.022;7.604;2023-02-15T05:33:29;-2.40;99.90
41344;DHT22;27089;50.022;7.604;2023-02-15T05:35:56;-2.40;99.90
41344;DHT22;27089;50.022;7.604;2023-02-15T05:38:23;-2.40;99.90
41344;DHT22;27089;50.022;7.604;2023-02-15T05:40:50;-2.30;99.90
41344;DHT22;27089;50.022;7.604;2023-02-15T05:43:17;-2.30;99.90
41344;DHT22;27089;50.022;7.604;2023-02-15T05:45:46;-2.30;99.90
41344;DHT22;27089;50.022;7.604;2023-02-15T05:48:13;-2.30;99.90
41344;DHT22;27089;50.022;7.604;2023-02-15T05:50:40;-2.30;99.90
41344;DHT22;27089;50.022;7.604;2023-02-15T05:53:07;-2.20;99.90
41344;DHT22;27089;50.022;7.604;2023-02-15T05:55:37;-2.20;99.90
41344;DHT22;27089;50.022;7.604;2023-02-15T05:58:04;-2.10;99.90
41344;DHT22;27089;50.022;7.604;2023-02-15T06:00:31;-2.10;99.90
41344;DHT22;27089;50.022;7.604;2023-02-15T06:02:59;-2.10;99.90
41344;DHT22;27089;50.022;7.604;2023-02-15T06:05:26;-2.00;99.90
41344;DHT22;27089;50.022;7.604;2023-02-15T06:07:53;-2.00;99.90
41344;DHT22;27089;50.022;7.604;2023-02-15T06:10:20;-2.00;99.90
41344;DHT22;27089;50.022;7.604;2023-02-15T06:12:47;-2.00;99.90
41344;DHT22;27089;50.022;7.604;2023-02-15T06:15:14;-2.00;99.90
41344;DHT22;27089;50.022;7.604;2023-02-15T06:17:41;-2.00;99.90
41344;DHT22;27089;50.022;7.604;2023-02-15T06:20:11;-2.00;99.90
41344;DHT22;27089;50.022;7.604;2023-02-15T06:22:38;-2.00;99.90
41344;DHT22;27089;50.022;7.604;2023-02-15T06:25:06;-2.00;99.90
41344;DHT22;27089;50.022;7.604;2023-02-15T06:27:35;-1.90;99.90
41344;DHT22;27089;50.022;7.604;2023-02-15T06:30:04;-2.00;99.90
41344;DHT22;27089;50.022;7.604;2023-02-15T06:32:31;-1.90;99.90
41344;DHT22;27089;50.022;7.604;2023-02-15T06:34:58;-1.90;99.90
41344;DHT22;27089;50.022;7.604;2023-02-15T06:37:27;-1.90;99.90
41344;DHT22;27089;50.022;7.604;2023-02-15T06:39:54;-2.00;99.90
41344;DHT22;27089;50.022;7.604;2023-02-15T06:42:21;-2.10;99.90
41344;DHT22;27089;50.022;7.604;2023-02-15T06:44:48;-2.10;99.90
41344;DHT22;27089;50.022;7.604;2023-02-15T06:47:15;-2.10;99.90
41344;DHT22;27089;50.022;7.604;2023-02-15T06:49:42;-2.00;99.90
41344;DHT22;27089;50.022;7.604;2023-02-15T06:52:09;-2.00;99.90
41344;DHT22;27089;50.022;7.604;2023-02-15T06:54:37;-1.90;99.90
41344;DHT22;27089;50.022;7.604;2023-02-15T06:57:04;-1.90;99.90
41344;DHT22;27089;50.022;7.604;2023-02-15T06:59:31;-1.80;99.90
41344;DHT22;27089;50.022;7.604;2023-02-15T07:01:58;-1.80;99.90
41344;DHT22;27089;50.022;7.604;2023-02-15T07:04:25;-1.70;99.90
41344;DHT22;27089;50.022;7.604;2023-02-15T07:06:54;-1.70;99.90
41344;DHT22;27089;50.022;7.604;2023-02-15T07:09:21;-1.60;99.90
41344;DHT22;27089;50.022;7.604;2023-02-15T07:11:49;-1.60;99.90
41344;DHT22;27089;50.022;7.604;2023-02-15T07:14:33;-1.60;99.90
41344;DHT22;27089;50.022;7.604;2023-02-15T07:17:00;-1.50;99.90
41344;DHT22;27089;50.022;7.604;2023-02-15T07:19:27;-1.60;99.90
41344;DHT22;27089;50.022;7.604;2023-02-15T07:21:54;-1.60;99.90
41344;DHT22;27089;50.022;7.604;2023-02-15T07:24:21;-1.60;99.90
41344;DHT22;27089;50.022;7.604;2023-02-15T07:26:50;-1.50;99.90
41344;DHT22;27089;50.022;7.604;2023-02-15T07:29:17;-1.50;99.90
41344;DHT22;27089;50.022;7.604;2023-02-15T07:31:44;-1.40;99.90
41344;DHT22;27089;50.022;7.604;2023-02-15T07:34:11;-1.30;99.90
41344;DHT22;27089;50.022;7.604;2023-02-15T07:36:38;-1.30;99.90
41344;DHT22;27089;50.022;7.604;2023-02-15T07:39:05;-1.20;99.90
41344;DHT22;27089;50.022;7.604;2023-02-15T07:41:32;-1.20;99.90
41344;DHT22;27089;50.022;7.604;2023-02-15T07:44:01;-1.20;99.90
41344;DHT22;27089;50.022;7.604;2023-02-15T07:46:28;-1.10;99.90
41344;DHT22;27089;50.022;7.604;2023-02-15T07:48:55;-1.10;99.90
41344;DHT22;27089;50.022;7.604;2023-02-15T07:51:22;-1.00;99.90
41344;DHT22;27089;50.022;7.604;2023-02-15T07:53:49;-0.90;99.90
41344;DHT22;27089;50.022;7.604;2023-02-15T07:56:17;-0.80;99.90
41344;DHT22;27089;50.022;7.604;2023-02-15T07:58:44;-0.60;99.90
41344;DHT22;27089;50.022;7.604;2023-02-15T08:01:24;-0.60;99.90
41344;DHT22;27089;50.022;7.604;2023-02-15T08:03:52;-0.50;99.90
41344;DHT22;27089;50.022;7.604;2023-02-15T08:06:20;-0.30;99.90
41344;DHT22;27089;50.022;7.604;2023-02-15T08:08:47;-0.10;99.90
41344;DHT22;27089;50.022;7.604;2023-02-15T08:11:16;-0.10;99.90
41344;DHT22;27089;50.022;7.604;2023-02-15T08:13:56;0.10;99.90
41344;DHT22;27089;50.022;7.604;2023-02-15T08:16:31;0.20;99.90
41344;DHT22;27089;50.022;7.604;2023-02-15T08:18:59;0.30;99.90
41344;DHT22;27089;50.022;7.604;2023-02-15T08:21:28;0.50;99.90
41344;DHT22;27089;50.022;7.604;2023-02-15T08:23:55;0.70;99.90
41344;DHT22;27089;50.022;7.604;2023-02-15T08:26:23;1.00;99.90
41344;DHT22;27089;50.022;7.604;2023-02-15T08:28:51;1.20;99.90
41344;DHT22;27089;50.022;7.604;2023-02-15T08:31:18;1.30;99.90
41344;DHT22;27089;50.022;7.604;2023-02-15T08:33:47;1.30;99.90
41344;DHT22;27089;50.022;7.604;2023-02-15T08:36:16;1.60;99.90
41344;DHT22;27089;50.022;7.604;2023-02-15T08:38:44;1.80;99.90
41344;DHT22;27089;50.022;7.604;2023-02-15T08:41:13;2.00;99.90
41344;DHT22;27089;50.022;7.604;2023-02-15T08:43:40;2.10;99.90
41344;DHT22;27089;50.022;7.604;2023-02-15T08:46:07;2.30;99.90
41344;DHT22;27089;50.022;7.604;2023-02-15T08:48:34;2.40;99.90
41344;DHT22;27089;50.022;7.604;2023-02-15T08:51:07;2.60;99.90
41344;DHT22;27089;50.022;7.604;2023-02-15T08:53:36;2.60;99.90
41344;DHT22;27089;50.022;7.604;2023-02-15T08:56:04;2.70;99.90
41344;DHT22;27089;50.022;7.604;2023-02-15T08:58:31;2.70;99.90
41344;DHT22;27089;50.022;7.604;2023-02-15T09:00:58;2.70;99.90
41344;DHT22;27089;50.022;7.604;2023-02-15T09:03:27;2.70;99.90
41344;DHT22;27089;50.022;7.604;2023-02-15T09:05:59;2.70;99.90
41344;DHT22;27089;50.022;7.604;2023-02-15T09:08:28;2.60;99.90
41344;DHT22;27089;50.022;7.604;2023-02-15T09:11:04;2.50;99.90
41344;DHT22;27089;50.022;7.604;2023-02-15T09:13:31;2.20;99.90
41344;DHT22;27089;50.022;7.604;2023-02-15T09:16:00;2.10;99.90
41344;DHT22;27089;50.022;7.604;2023-02-15T09:18:29;2.10;99.90
41344;DHT22;27089;50.022;7.604;2023-02-15T09:20:56;2.10;99.90
41344;DHT22;27089;50.022;7.604;2023-02-15T09:23:23;2.20;99.90
41344;DHT22;27089;50.022;7.604;2023-02-15T09:25:52;2.20;99.90
41344;DHT22;27089;50.022;7.604;2023-02-15T09:28:19;2.40;99.90
41344;DHT22;27089;50.022;7.604;2023-02-15T09:30:45;2.60;99.90
41344;DHT22;27089;50.022;7.604;2023-02-15T09:33:13;2.60;99.90
41344;DHT22;27089;50.022;7.604;2023-02-15T09:35:39;2.70;99.90
41344;DHT22;27089;50.022;7.604;2023-02-15T09:38:06;2.70;99.90
41344;DHT22;27089;50.022;7.604;2023-02-15T09:40:39;2.90;99.90
41344;DHT22;27089;50.022;7.604;2023-02-15T09:43:21;3.10;99.90
41344;DHT22;27089;50.022;7.604;2023-02-15T09:49:10;3.60;99.90
41344;DHT22;27089;50.022;7.604;2023-02-15T09:51:55;4.00;99.90
41344;DHT22;27089;50.022;7.604;2023-02-15T09:54:37;4.70;99.90
41344;DHT22;27089;50.022;7.604;2023-02-15T09:57:12;5.70;99.90
41344;DHT22;27089;50.022;7.604;2023-02-15T09:59:52;6.70;99.90
41344;DHT22;27089;50.022;7.604;2023-02-15T10:02:34;7.40;99.90
41344;DHT22;27089;50.022;7.604;2023-02-15T10:05:12;7.90;99.90
41344;DHT22;27089;50.022;7.604;2023-02-15T10:08:00;8.30;99.90
41344;DHT22;27089;50.022;7.604;2023-02-15T10:10:36;8.50;99.90
41344;DHT22;27089;50.022;7.604;2023-02-15T10:13:16;8.70;99.90
41344;DHT22;27089;50.022;7.604;2023-02-15T10:15:56;8.80;99.90
41344;DHT22;27089;50.022;7.604;2023-02-15T10:18:39;8.90;99.90
41344;DHT22;27089;50.022;7.604;2023-02-15T10:21:18;9.30;99.90
41344;DHT22;27089;50.022;7.604;2023-02-15T10:24:12;9.30;99.90
41344;DHT22;27089;50.022;7.604;2023-02-15T10:26:44;9.70;99.90
41344;DHT22;27089;50.022;7.604;2023-02-15T10:29:21;9.50;99.90
41344;DHT22;27089;50.022;7.604;2023-02-15T10:32:01;9.60;99.90
41344;DHT22;27089;50.022;7.604;2023-02-15T10:34:37;9.30;99.90
41344;DHT22;27089;50.022;7.604;2023-02-15T10:37:38;9.30;99.90
41344;DHT22;27089;50.022;7.604;2023-02-15T10:40:12;9.50;99.90
41344;DHT22;27089;50.022;7.604;2023-02-15T10:42:52;9.60;99.90
41344;DHT22;27089;50.022;7.604;2023-02-15T10:45:30;9.30;99.90
41344;DHT22;27089;50.022;7.604;2023-02-15T10:51:11;9.50;99.90
41344;DHT22;27089;50.022;7.604;2023-02-15T10:53:59;9.60;99.90
41344;DHT22;27089;50.022;7.604;2023-02-15T10:56:32;9.60;99.90
41344;DHT22;27089;50.022;7.604;2023-02-15T10:59:27;9.80;99.90
41344;DHT22;27089;50.022;7.604;2023-02-15T11:02:02;9.70;99.90
41344;DHT22;27089;50.022;7.604;2023-02-15T11:04:40;9.70;99.90
41344;DHT22;27089;50.022;7.604;2023-02-15T11:07:16;9.50;99.90
41344;DHT22;27089;50.022;7.604;2023-02-15T11:09:47;9.60;99.90
41344;DHT22;27089;50.022;7.604;2023-02-15T11:12:18;9.80;99.90
41344;DHT22;27089;50.022;7.604;2023-02-15T11:14:50;9.70;99.90
41344;DHT22;27089;50.022;7.604;2023-02-15T11:17:22;9.80;99.90
41344;DHT22;27089;50.022;7.604;2023-02-15T11:19:57;10.20;99.90
41344;DHT22;27089;50.022;7.604;2023-02-15T11:22:29;10.20;99.90
41344;DHT22;27089;50.022;7.604;2023-02-15T11:24:58;10.40;99.90
41344;DHT22;27089;50.022;7.604;2023-02-15T11:27:29;10.50;99.90
41344;DHT22;27089;50.022;7.604;2023-02-15T11:30:00;10.70;99.90
41344;DHT22;27089;50.022;7.604;2023-02-15T11:32:32;10.80;99.90
41344;DHT22;27089;50.022;7.604;2023-02-15T11:35:02;10.80;99.90
41344;DHT22;27089;50.022;7.604;2023-02-15T11:37:37;10.30;99.90
41344;DHT22;27089;50.022;7.604;2023-02-15T11:40:17;9.80;99.90
41344;DHT22;27089;50.022;7.604;2023-02-15T11:42:47;9.20;99.90
41344;DHT22;27089;50.022;7.604;2023-02-15T11:45:22;8.90;99.90
41344;DHT22;27089;50.022;7.604;2023-02-15T11:47:50;8.60;99.90
41344;DHT22;27089;50.022;7.604;2023-02-15T11:50:21;8.30;99.90
41344;DHT22;27089;50.022;7.604;2023-02-15T11:52:51;8.10;99.90
41344;DHT22;27089;50.022;7.604;2023-02-15T11:55:21;8.00;99.90
41344;DHT22;27089;50.022;7.604;2023-02-15T11:57:52;7.80;99.90
41344;DHT22;27089;50.022;7.604;2023-02-15T12:00:30;7.70;99.90
41344;DHT22;27089;50.022;7.604;2023-02-15T12:03:04;7.70;99.90
41344;DHT22;27089;50.022;7.604;2023-02-15T12:05:37;7.60;99.90
41344;DHT22;27089;50.022;7.604;2023-02-15T12:08:15;7.70;99.90
41344;DHT22;27089;50.022;7.604;2023-02-15T12:10:52;7.70;99.90
41344;DHT22;27089;50.022;7.604;2023-02-15T12:13:22;7.70;99.90
41344;DHT22;27089;50.022;7.604;2023-02-15T12:15:52;7.60;99.90
41344;DHT22;27089;50.022;7.604;2023-02-15T12:18:31;7.70;99.90
41344;DHT22;27089;50.022;7.604;2023-02-15T12:21:02;7.70;99.90
41344;DHT22;27089;50.022;7.604;2023-02-15T12:23:32;7.80;99.90
41344;DHT22;27089;50.022;7.604;2023-02-15T12:25:59;7.80;99.90
41344;DHT22;27089;50.022;7.604;2023-02-15T12:28:31;7.90;99.90
41344;DHT22;27089;50.022;7.604;2023-02-15T12:30:59;8.00;99.90
41344;DHT22;27089;50.022;7.604;2023-02-15T12:33:30;8.00;99.90
41344;DHT22;27089;50.022;7.604;2023-02-15T12:36:00;8.00;99.90
41344;DHT22;27089;50.022;7.604;2023-02-15T12:38:29;8.10;99.90
41344;DHT22;27089;50.022;7.604;2023-02-15T12:41:02;8.10;99.90
41344;DHT22;27089;50.022;7.604;2023-02-15T12:43:33;8.10;99.90
41344;DHT22;27089;50.022;7.604;2023-02-15T12:46:20;8.20;99.90
41344;DHT22;27089;50.022;7.604;2023-02-15T12:49:05;8.20;99.90
41344;DHT22;27089;50.022;7.604;2023-02-15T12:51:43;8.20;99.90
41344;DHT22;27089;50.022;7.604;2023-02-15T12:54:32;8.20;99.90
41344;DHT22;27089;50.022;7.604;2023-02-15T12:57:25;8.30;99.90
41344;DHT22;27089;50.022;7.604;2023-02-15T12:59:54;8.30;99.90
41344;DHT22;27089;50.022;7.604;2023-02-15T13:02:25;8.40;99.90
41344;DHT22;27089;50.022;7.604;2023-02-15T13:04:54;8.40;99.90
41344;DHT22;27089;50.022;7.604;2023-02-15T13:07:22;8.40;99.90
41344;DHT22;27089;50.022;7.604;2023-02-15T13:09:50;8.40;99.90
41344;DHT22;27089;50.022;7.604;2023-02-15T13:12:21;8.50;99.90
41344;DHT22;27089;50.022;7.604;2023-02-15T13:14:50;8.50;99.90
41344;DHT22;27089;50.022;7.604;2023-02-15T13:17:21;8.60;99.90
41344;DHT22;27089;50.022;7.604;2023-02-15T13:19:56;8.60;99.90
41344;DHT22;27089;50.022;7.604;2023-02-15T13:22:28;8.70;99.90
41344;DHT22;27089;50.022;7.604;2023-02-15T13:25:01;8.70;99.90
41344;DHT22;27089;50.022;7.604;2023-02-15T13:27:35;8.70;99.90
41344;DHT22;27089;50.022;7.604;2023-02-15T13:30:09;8.80;99.90
41344;DHT22;27089;50.022;7.604;2023-02-15T13:32:38;8.80;99.90
41344;DHT22;27089;50.022;7.604;2023-02-15T13:35:14;8.80;99.90
41344;DHT22;27089;50.022;7.604;2023-02-15T13:38:06;8.90;99.90
41344;DHT22;27089;50.022;7.604;2023-02-15T13:40:38;8.90;99.90
41344;DHT22;27089;50.022;7.604;2023-02-15T13:43:20;8.90;99.90
41344;DHT22;27089;50.022;7.604;2023-02-15T13:46:01;9.00;99.90
41344;DHT22;27089;50.022;7.604;2023-02-15T13:48:40;9.00;99.90
41344;DHT22;27089;50.022;7.604;2023-02-15T13:51:13;9.10;99.90
41344;DHT22;27089;50.022;7.604;2023-02-15T13:54:06;9.10;99.90
41344;DHT22;27089;50.022;7.604;2023-02-15T13:56:46;9.10;99.90
41344;DHT22;27089;50.022;7.604;2023-02-15T13:59:43;9.00;99.90
41344;DHT22;27089;50.022;7.604;2023-02-15T14:05:50;9.00;99.90
41344;DHT22;27089;50.022;7.604;2023-02-15T14:08:26;9.00;99.90
41344;DHT22;27089;50.022;7.604;2023-02-15T14:11:01;9.00;99.90
41344;DHT22;27089;50.022;7.604;2023-02-15T14:16:41;8.90;99.90
41344;DHT22;27089;50.022;7.604;2023-02-15T14:19:16;8.90;99.90
41344;DHT22;27089;50.022;7.604;2023-02-15T14:21:48;8.80;99.90
41344;DHT22;27089;50.022;7.604;2023-02-15T14:24:27;8.80;99.90
41344;DHT22;27089;50.022;7.604;2023-02-15T14:27:09;8.80;99.90
41344;DHT22;27089;50.022;7.604;2023-02-15T14:29:46;8.80;99.90
41344;DHT22;27089;50.022;7.604;2023-02-15T14:32:20;8.70;99.90
41344;DHT22;27089;50.022;7.604;2023-02-15T14:34:51;8.70;99.90
41344;DHT22;27089;50.022;7.604;2023-02-15T14:37:25;8.70;99.90
41344;DHT22;27089;50.022;7.604;2023-02-15T14:39:56;8.70;99.90
41344;DHT22;27089;50.022;7.604;2023-02-15T14:42:50;8.70;99.90
41344;DHT22;27089;50.022;7.604;2023-02-15T14:45:23;8.70;99.90
41344;DHT22;27089;50.022;7.604;2023-02-15T14:48:02;8.70;99.90
41344;DHT22;27089;50.022;7.604;2023-02-15T14:50:40;8.70;99.90
41344;DHT22;27089;50.022;7.604;2023-02-15T14:53:34;8.70;99.90
41344;DHT22;27089;50.022;7.604;2023-02-15T14:56:30;8.70;99.90
41344;DHT22;27089;50.022;7.604;2023-02-15T14:59:16;8.70;99.90
41344;DHT22;27089;50.022;7.604;2023-02-15T15:01:57;8.70;99.90
41344;DHT22;27089;50.022;7.604;2023-02-15T15:04:33;8.70;99.90
41344;DHT22;27089;50.022;7.604;2023-02-15T15:07:08;8.70;99.90
41344;DHT22;27089;50.022;7.604;2023-02-15T15:09:37;8.60;99.90
41344;DHT22;27089;50.022;7.604;2023-02-15T15:12:37;8.60;99.90
41344;DHT22;27089;50.022;7.604;2023-02-15T15:15:05;8.50;99.90
41344;DHT22;27089;50.022;7.604;2023-02-15T15:20:43;8.40;99.90
41344;DHT22;27089;50.022;7.604;2023-02-15T15:23:36;8.30;99.90
41344;DHT22;27089;50.022;7.604;2023-02-15T15:26:20;8.20;99.90
41344;DHT22;27089;50.022;7.604;2023-02-15T15:28:57;8.20;99.90
41344;DHT22;27089;50.022;7.604;2023-02-15T15:34:38;8.10;99.90
41344;DHT22;27089;50.022;7.604;2023-02-15T15:37:42;7.90;99.90
41344;DHT22;27089;50.022;7.604;2023-02-15T15:40:29;7.80;99.90
41344;DHT22;27089;50.022;7.604;2023-02-15T15:46:27;7.60;99.90
41344;DHT22;27089;50.022;7.604;2023-02-15T15:49:00;7.50;99.90
41344;DHT22;27089;50.022;7.604;2023-02-15T15:51:31;7.40;99.90
41344;DHT22;27089;50.022;7.604;2023-02-15T15:54:00;7.20;99.90
41344;DHT22;27089;50.022;7.604;2023-02-15T15:56:30;7.10;99.90
41344;DHT22;27089;50.022;7.604;2023-02-15T15:59:00;7.00;99.90
41344;DHT22;27089;50.022;7.604;2023-02-15T16:01:29;6.80;99.90
41344;DHT22;27089;50.022;7.604;2023-02-15T16:03:58;6.60;99.90
41344;DHT22;27089;50.022;7.604;2023-02-15T16:06:34;6.50;99.90
41344;DHT22;27089;50.022;7.604;2023-02-15T16:09:15;6.30;99.90
41344;DHT22;27089;50.022;7.604;2023-02-15T16:11:43;6.20;99.90
41344;DHT22;27089;50.022;7.604;2023-02-15T16:14:13;6.10;99.90
41344;DHT22;27089;50.022;7.604;2023-02-15T16:16:48;5.90;99.90
41344;DHT22;27089;50.022;7.604;2023-02-15T16:19:22;5.80;99.90
41344;DHT22;27089;50.022;7.604;2023-02-15T16:21:50;5.70;99.90
41344;DHT22;27089;50.022;7.604;2023-02-15T16:24:47;5.60;99.90
41344;DHT22;27089;50.022;7.604;2023-02-15T16:27:34;5.50;99.90
41344;DHT22;27089;50.022;7.604;2023-02-15T16:30:18;5.40;99.90
41344;DHT22;27089;50.022;7.604;2023-02-15T16:32:45;5.30;99.90
41344;DHT22;27089;50.022;7.604;2023-02-15T16:35:15;5.20;99.90
41344;DHT22;27089;50.022;7.604;2023-02-15T16:37:42;5.10;99.90
41344;DHT22;27089;50.022;7.604;2023-02-15T16:40:27;5.00;99.90